Time;durP1;ratioP1;P1;durP2;ratioP2;P2;SDS_P1;SDS_P2;PMS_P1;PMS_P2;Temp;Humidity;BMP_temperature;BMP_pressure;BME280_temperature;BME280_humidity;BME280_pressure;Samples;Min_cycle;Max_cycle;Signal;HPM_P1;HPM_P2
2020/12/02 05:23:17;;;;;;;1999.90;999.90;;;-1.00;99.90;;;;;;5060194;28;20568;-47
2020/12/02 05:25:43;;;;;;;1999.90;999.90;;;-1.00;99.90;;;;;;5049567;28;20920;-47
2020/12/02 05:28:26;;;;;;;1999.90;999.90;;;-0.90;99.90;;;;;;5045826;28;20490;-46
2020/12/02 05:31:21;;;;;;;1999.90;999.90;;;-0.90;99.90;;;;;;5042442;28;20419;-47
2020/12/02 05:33:47;;;;;;;1999.90;999.90;;;-0.90;99.90;;;;;;5042505;28;20437;-48
2020/12/02 05:36:29;;;;;;;1999.90;999.90;;;-0.90;99.90;;;;;;5049455;28;20789;-48
2020/12/02 05:39:27;;;;;;;1999.90;999.90;;;-0.80;99.90;;;;;;5050180;28;20213;-48
2020/12/02 05:41:54;;;;;;;1999.90;999.90;;;-0.80;99.90;;;;;;5048817;28;20569;-47
2020/12/02 05:44:22;;;;;;;1999.90;999.90;;;-0.80;99.90;;;;;;5049276;28;20432;-47
2020/12/02 05:46:57;;;;;;;1999.90;999.90;;;-0.60;99.90;;;;;;5040895;28;20948;-48
2020/12/02 05:49:48;;;;;;;1999.90;999.90;;;-0.70;99.90;;;;;;5048721;28;21153;-47
2020/12/02 05:52:25;;;;;;;1999.90;999.90;;;-0.60;99.90;;;;;;5048444;28;20444;-47
2020/12/02 05:55:09;;;;;;;1999.90;999.90;;;-0.60;99.90;;;;;;5042474;28;20436;-47
2020/12/02 05:57:40;;;;;;;1999.90;999.90;;;-0.60;99.90;;;;;;5039122;28;20457;-47
2020/12/02 06:00:08;;;;;;;1999.90;999.90;;;-0.60;99.90;;;;;;5045529;28;20441;-47
2020/12/02 06:02:37;;;;;;;1999.90;999.90;;;-0.70;99.90;;;;;;5035681;28;20551;-48
2020/12/02 06:05:07;;;;;;;1999.90;999.90;;;-0.70;99.90;;;;;;5048648;28;20412;-47
2020/12/02 06:07:49;;;;;;;1999.90;999.90;;;-0.80;99.90;;;;;;5047824;28;20543;-48
2020/12/02 06:10:17;;;;;;;1999.90;999.90;;;-0.80;99.90;;;;;;5048757;28;20444;-47
2020/12/02 06:12:43;;;;;;;1999.90;999.90;;;-0.80;99.90;;;;;;5048282;28;20444;-48
2020/12/02 06:15:23;;;;;;;1999.90;999.90;;;-0.90;99.90;;;;;;5047201;28;20444;-48
2020/12/02 06:18:10;;;;;;;1999.90;999.90;;;-0.90;99.90;;;;;;5048467;28;20442;-48
2020/12/02 06:20:37;;;;;;;1999.90;999.90;;;-0.80;99.90;;;;;;5048108;28;20522;-48
2020/12/02 06:23:04;;;;;;;1999.90;999.90;;;-0.90;99.90;;;;;;5047584;28;20958;-48
2020/12/02 06:25:48;;;;;;;1999.90;999.90;;;-0.90;99.90;;;;;;5048877;28;20496;-48
2020/12/02 06:28:29;;;;;;;1999.90;999.90;;;-1.00;99.90;;;;;;5046527;28;20459;-48
2020/12/02 06:31:10;;;;;;;1999.90;999.90;;;-1.00;99.90;;;;;;5046967;28;20448;-48
2020/12/02 06:33:37;;;;;;;1999.90;999.90;;;-0.90;99.90;;;;;;5026882;28;20529;-49
2020/12/02 06:36:15;;;;;;;1999.90;999.90;;;-0.90;99.90;;;;;;5028061;28;20445;-48
2020/12/02 06:38:40;;;;;;;1999.90;999.90;;;-1.00;99.90;;;;;;5015974;28;20434;-48
2020/12/02 06:41:31;;;;;;;1999.90;999.90;;;-1.00;99.90;;;;;;5033752;28;21022;-49
2020/12/02 06:44:08;;;;;;;1999.90;999.90;;;-1.00;99.90;;;;;;5027777;28;20197;-47
2020/12/02 06:46:55;;;;;;;1999.90;999.90;;;-1.10;99.90;;;;;;5026597;28;20483;-47
2020/12/02 06:49:28;;;;;;;1999.90;999.90;;;-1.10;99.90;;;;;;5030428;28;20437;-47
2020/12/02 06:51:57;;;;;;;1999.90;999.90;;;-1.20;99.90;;;;;;5030025;28;20448;-47
2020/12/02 06:54:24;;;;;;;1999.90;999.90;;;-1.20;99.90;;;;;;5027917;28;20448;-48
2020/12/02 06:56:57;;;;;;;1999.90;999.90;;;-1.30;99.90;;;;;;5027486;28;20444;-47
2020/12/02 06:59:22;;;;;;;1999.90;999.90;;;-1.30;99.90;;;;;;5024697;28;20453;-48
2020/12/02 07:01:50;;;;;;;1999.90;999.90;;;-1.20;99.90;;;;;;5028605;28;20469;-47
2020/12/02 07:04:22;;;;;;;1999.90;999.90;;;-1.30;99.90;;;;;;5030495;28;20434;-47
2020/12/02 07:06:57;;;;;;;1999.90;999.90;;;-1.30;99.90;;;;;;5029555;28;20465;-48
2020/12/02 07:09:23;;;;;;;1999.90;999.90;;;-1.30;99.90;;;;;;5028637;28;20433;-48
2020/12/02 07:11:55;;;;;;;1999.90;999.90;;;-1.40;99.90;;;;;;5026801;28;20799;-47
2020/12/02 15:29:47;;;;;;;1999.90;999.90;;;-3.20;99.90;;;;;;5068375;28;20611;-47
2020/12/02 15:32:28;;;;;;;1999.90;999.90;;;-3.10;99.90;;;;;;5068439;28;20707;-47
2020/12/02 15:34:55;;;;;;;1999.90;999.90;;;-3.00;99.90;;;;;;5068761;28;20267;-48
2020/12/02 15:37:53;;;;;;;1999.90;999.90;;;-2.80;99.90;;;;;;5063860;28;20224;-48
2020/12/02 15:40:36;;;;;;;1999.90;999.90;;;-2.70;99.90;;;;;;5043322;28;20845;-48
2020/12/02 15:43:23;;;;;;;1999.90;999.90;;;-2.60;99.90;;;;;;5043457;28;20535;-48
2020/12/02 15:46:27;;;;;;;1999.90;999.90;;;-2.50;99.90;;;;;;5043742;28;20455;-48
2020/12/02 15:49:00;;;;;;;1999.90;999.90;;;-2.40;99.90;;;;;;5041698;28;20833;-47
2020/12/02 15:51:35;;;;;;;1999.90;999.90;;;-2.30;99.90;;;;;;5046877;28;20420;-47
2020/12/02 15:54:07;;;;;;;1999.90;999.90;;;-2.20;99.90;;;;;;5046260;28;20423;-48
2020/12/02 15:56:52;;;;;;;1999.90;999.90;;;-2.20;99.90;;;;;;5045989;28;20835;-47
2020/12/02 15:59:32;;;;;;;1999.90;999.90;;;-2.10;99.90;;;;;;5045150;28;20826;-47
2020/12/02 16:01:59;;;;;;;1999.90;999.90;;;-2.10;99.90;;;;;;5043872;28;20466;-47
2020/12/02 16:04:44;;;;;;;1999.90;999.90;;;-2.20;99.90;;;;;;5042449;28;20964;-48
2020/12/02 16:07:44;;;;;;;1999.90;999.90;;;-2.10;99.90;;;;;;5041185;28;20467;-47
2020/12/02 16:10:12;;;;;;;1999.90;999.90;;;-2.00;99.90;;;;;;5041734;28;20428;-48
2020/12/02 16:12:39;;;;;;;1999.90;999.90;;;-2.10;99.90;;;;;;5040929;28;20428;-47
2020/12/02 16:15:12;;;;;;;1999.90;999.90;;;-2.10;99.90;;;;;;5041863;28;20431;-48
2020/12/02 16:17:38;;;;;;;1999.90;999.90;;;-2.10;99.90;;;;;;5045926;28;20460;-48
2020/12/02 16:20:19;;;;;;;1999.90;999.90;;;-2.10;99.90;;;;;;5046552;28;20423;-47
2020/12/02 16:23:14;;;;;;;1999.90;999.90;;;-2.10;99.90;;;;;;5046116;28;20427;-48
2020/12/02 16:25:52;;;;;;;1999.90;999.90;;;-2.20;99.90;;;;;;5041594;28;20431;-47
2020/12/02 16:28:25;;;;;;;1999.90;999.90;;;-2.20;99.90;;;;;;5045969;28;20980;-47
2020/12/02 16:30:51;;;;;;;1999.90;999.90;;;-2.20;99.90;;;;;;5046921;28;20763;-48
2020/12/02 16:33:22;;;;;;;1999.90;999.90;;;-2.20;99.90;;;;;;5046193;28;20424;-48
2020/12/02 16:35:49;;;;;;;1999.90;999.90;;;-2.20;99.90;;;;;;5047393;28;20412;-47
2020/12/02 16:38:22;;;;;;;1999.90;999.90;;;-2.10;99.90;;;;;;5045289;28;20569;-47
2020/12/02 16:40:49;;;;;;;1999.90;999.90;;;-2.20;99.90;;;;;;5036051;28;20414;-48
2020/12/02 16:43:42;;;;;;;1999.90;999.90;;;-2.20;99.90;;;;;;5032505;28;20976;-48
2020/12/02 16:46:21;;;;;;;1999.90;999.90;;;-2.20;99.90;;;;;;5027317;28;20500;-48
2020/12/02 16:49:08;;;;;;;1999.90;999.90;;;-2.20;99.90;;;;;;5029472;28;20525;-47
2020/12/02 16:52:05;;;;;;;1999.90;999.90;;;-2.20;99.90;;;;;;5031032;28;20435;-47
2020/12/02 16:54:49;;;;;;;1999.90;999.90;;;-2.20;99.90;;;;;;5026972;28;20433;-48
2020/12/02 16:57:22;;;;;;;1999.90;999.90;;;-2.30;99.90;;;;;;5026710;28;20429;-47
2020/12/02 16:59:52;;;;;;;1999.90;999.90;;;-2.30;99.90;;;;;;5022323;28;20437;-47
2020/12/02 17:02:41;;;;;;;1999.90;999.90;;;-2.30;99.90;;;;;;5026476;28;21127;-48
2020/12/02 17:05:17;;;;;;;1999.90;999.90;;;-2.30;99.90;;;;;;5021549;28;20832;-48
2020/12/02 17:07:45;;;;;;;1999.90;999.90;;;-2.40;99.90;;;;;;5023019;28;20468;-48
2020/12/02 17:10:14;;;;;;;1999.90;999.90;;;-2.40;99.90;;;;;;5025088;28;20437;-47
2020/12/02 17:12:57;;;;;;;1999.90;999.90;;;-2.40;99.90;;;;;;5023434;28;20425;-48
2020/12/02 17:15:37;;;;;;;1999.90;999.90;;;-2.50;99.90;;;;;;5027454;28;20952;-48
2020/12/02 17:18:18;;;;;;;1999.90;999.90;;;-2.70;99.90;;;;;;5026614;28;20463;-48
2020/12/02 17:21:28;;;;;;;1999.90;999.90;;;-2.80;99.90;;;;;;5029757;28;20441;-48
2020/12/02 17:24:34;;;;;;;1999.90;999.90;;;-2.90;99.90;;;;;;5038338;28;20458;-48
2020/12/02 17:27:42;;;;;;;1999.90;999.90;;;-3.00;99.90;;;;;;5035311;28;20952;-48
2020/12/02 17:30:51;;;;;;;1999.90;999.90;;;-3.10;99.90;;;;;;5021038;28;20255;-48
2020/12/02 17:33:34;;;;;;;1999.90;999.90;;;-3.10;99.90;;;;;;5018098;28;20193;-48
2020/12/02 17:36:23;;;;;;;1999.90;999.90;;;-3.10;99.90;;;;;;5020943;28;20478;-48
2020/12/02 17:39:20;;;;;;;1999.90;999.90;;;-3.00;99.90;;;;;;5023467;28;20844;-48
2020/12/02 17:41:52;;;;;;;1999.90;999.90;;;-3.00;99.90;;;;;;5021819;28;20252;-47
2020/12/02 17:44:45;;;;;;;1999.90;999.90;;;-2.80;99.90;;;;;;5026062;28;20440;-48
2020/12/02 17:47:24;;;;;;;1999.90;999.90;;;-2.70;99.90;;;;;;5026315;28;20492;-47
2020/12/02 17:50:19;;;;;;;1999.90;999.90;;;-2.60;99.90;;;;;;5021420;28;20995;-47
2020/12/02 17:53:00;;;;;;;1999.90;999.90;;;-2.40;99.90;;;;;;5023333;28;20433;-48
2020/12/02 17:55:36;;;;;;;1999.90;999.90;;;-2.30;99.90;;;;;;5029812;28;20429;-48
2020/12/02 17:58:04;;;;;;;1999.90;999.90;;;-2.30;99.90;;;;;;5018272;28;20464;-48
2020/12/02 18:00:34;;;;;;;1999.90;999.90;;;-2.20;99.90;;;;;;5025966;28;20506;-48
2020/12/02 18:03:44;;;;;;;1999.90;999.90;;;-2.20;99.90;;;;;;5029573;28;20815;-46
2020/12/02 18:06:12;;;;;;;1999.90;999.90;;;-2.10;99.90;;;;;;5021797;28;20452;-45
2020/12/02 18:09:02;;;;;;;1999.90;999.90;;;-2.00;99.90;;;;;;5030153;28;20484;-47
2020/12/02 18:12:00;;;;;;;1999.90;999.90;;;-2.00;99.90;;;;;;5026169;28;20452;-46
2020/12/02 18:14:33;;;;;;;1999.90;999.90;;;-2.00;99.90;;;;;;5028571;28;20429;-47
2020/12/02 18:17:02;;;;;;;1999.90;999.90;;;-1.90;99.90;;;;;;5023905;28;20701;-47
2020/12/02 18:19:41;;;;;;;1999.90;999.90;;;-1.90;99.90;;;;;;5023345;28;20532;-47
2020/12/02 18:22:21;;;;;;;1999.90;999.90;;;-1.90;99.90;;;;;;5032812;28;20449;-48
2020/12/02 18:25:18;;;;;;;1999.90;999.90;;;-1.80;99.90;;;;;;5023446;28;21059;-47
2020/12/02 18:27:54;;;;;;;1999.90;999.90;;;-1.90;99.90;;;;;;5030661;28;20515;-47
2020/12/02 18:30:31;;;;;;;1999.90;999.90;;;-1.90;99.90;;;;;;5027248;28;20810;-47
2020/12/02 18:33:21;;;;;;;1999.90;999.90;;;-1.80;99.90;;;;;;5028888;28;20437;-47
2020/12/02 18:35:54;;;;;;;1999.90;999.90;;;-1.80;99.90;;;;;;5025641;28;20434;-47
2020/12/02 18:38:32;;;;;;;1999.90;999.90;;;-1.80;99.90;;;;;;5025162;28;20822;-47
2020/12/02 18:41:07;;;;;;;1999.90;999.90;;;-1.80;99.90;;;;;;5027331;28;20451;-47
2020/12/02 18:43:49;;;;;;;1999.90;999.90;;;-1.80;99.90;;;;;;5029630;28;20556;-47
2020/12/02 18:46:41;;;;;;;1999.90;999.90;;;-1.80;99.90;;;;;;5029036;28;20808;-47
2020/12/02 18:49:51;;;;;;;1999.90;999.90;;;-1.70;99.90;;;;;;5026975;28;20476;-47
2020/12/02 18:52:18;;;;;;;1999.90;999.90;;;-1.80;99.90;;;;;;5028638;28;20445;-47
2020/12/02 18:54:44;;;;;;;1999.90;999.90;;;-1.70;99.90;;;;;;5031161;28;20414;-47
2020/12/02 18:57:40;;;;;;;1999.90;999.90;;;-1.70;99.90;;;;;;5026767;28;20460;-47
2020/12/02 19:00:13;;;;;;;1999.90;999.90;;;-1.70;99.90;;;;;;5028559;28;21052;-47
2020/12/02 19:02:44;;;;;;;1999.90;999.90;;;-1.60;99.90;;;;;;5026747;28;20482;-47
2020/12/02 19:05:18;;;;;;;1999.90;999.90;;;-1.70;99.90;;;;;;5027068;28;20421;-47
2020/12/02 19:08:07;;;;;;;1999.90;999.90;;;-1.70;99.90;;;;;;5020061;28;20460;-47
2020/12/02 19:10:32;;;;;;;1999.90;999.90;;;-1.80;99.90;;;;;;5022123;28;20938;-47
2020/12/02 19:13:27;;;;;;;1999.90;999.90;;;-1.80;99.90;;;;;;5028923;28;20440;-47
2020/12/02 19:16:14;;;;;;;1999.90;999.90;;;-1.80;99.90;;;;;;5027121;28;20219;-47
2020/12/02 19:19:24;;;;;;;1999.90;999.90;;;-1.70;99.90;;;;;;5028593;28;20466;-48
2020/12/02 19:22:19;;;;;;;1999.90;999.90;;;-1.80;99.90;;;;;;5028031;28;20475;-46
2020/12/02 19:25:11;;;;;;;1999.90;999.90;;;-1.80;99.90;;;;;;5020064;28;21135;-46
2020/12/02 19:27:59;;;;;;;1999.90;999.90;;;-1.90;99.90;;;;;;5030178;28;20841;-48
2020/12/02 19:30:50;;;;;;;1999.90;999.90;;;-1.90;99.90;;;;;;5029384;28;20917;-48
2020/12/02 19:33:38;;;;;;;1999.90;999.90;;;-1.90;99.90;;;;;;5027821;28;20500;-48
2020/12/02 19:36:21;;;;;;;1999.90;999.90;;;-1.80;99.90;;;;;;5027104;28;20437;-49
2020/12/02 19:39:02;;;;;;;1999.90;999.90;;;-1.80;99.90;;;;;;5021162;28;20441;-48
2020/12/02 19:41:54;;;;;;;1999.90;999.90;;;-1.80;99.90;;;;;;5030643;28;20436;-48
2020/12/02 19:44:32;;;;;;;1999.90;999.90;;;-1.80;99.90;;;;;;5027085;28;20459;-48
2020/12/02 19:47:15;;;;;;;1999.90;999.90;;;-1.80;99.90;;;;;;5027986;28;20519;-48
2020/12/02 19:49:44;;;;;;;1999.90;999.90;;;-1.80;99.90;;;;;;5030298;28;20464;-47
2020/12/02 19:52:19;;;;;;;1999.90;999.90;;;-1.90;99.90;;;;;;5021800;28;20455;-48
2020/12/02 19:54:45;;;;;;;1999.90;999.90;;;-1.80;99.90;;;;;;5029632;28;20452;-48
2020/12/02 19:57:37;;;;;;;1999.90;999.90;;;-1.90;99.90;;;;;;5016377;28;20493;-48
2020/12/02 20:00:38;;;;;;;1999.90;999.90;;;-1.90;99.90;;;;;;5021917;28;20244;-48
2020/12/02 20:03:26;;;;;;;1999.90;999.90;;;-1.90;99.90;;;;;;5025601;28;21149;-48
2020/12/02 20:06:01;;;;;;;1999.90;999.90;;;-1.90;99.90;;;;;;5019785;28;20461;-48
2020/12/02 20:08:49;;;;;;;1999.90;999.90;;;-1.90;99.90;;;;;;5023264;28;20538;-48
2020/12/02 20:11:54;;;;;;;1999.90;999.90;;;-1.90;99.90;;;;;;5027754;28;20440;-48
2020/12/02 20:14:26;;;;;;;1999.90;999.90;;;-1.90;99.90;;;;;;5025248;28;20429;-48
2020/12/02 20:17:25;;;;;;;1999.90;999.90;;;-1.90;99.90;;;;;;5028437;28;20555;-48
2020/12/02 20:20:06;;;;;;;1999.90;999.90;;;-1.90;99.90;;;;;;5029349;28;20471;-48
2020/12/02 20:22:55;;;;;;;1999.90;999.90;;;-1.80;99.90;;;;;;5029379;28;20483;-48
2020/12/02 20:25:38;;;;;;;1999.90;999.90;;;-1.80;99.90;;;;;;5031638;28;20911;-48
2020/12/02 20:28:06;;;;;;;1999.90;999.90;;;-1.80;99.90;;;;;;5030054;28;20563;-48
2020/12/02 20:30:39;;;;;;;1999.90;999.90;;;-1.70;99.90;;;;;;5015335;28;20452;-48
2020/12/02 20:33:09;;;;;;;1999.90;999.90;;;-1.60;99.90;;;;;;5019428;28;20957;-48
2020/12/02 20:35:42;;;;;;;1999.90;999.90;;;-1.60;99.90;;;;;;5032722;28;20461;-48
2020/12/02 20:38:13;;;;;;;1999.90;999.90;;;-1.50;99.90;;;;;;5030604;28;20534;-48
2020/12/02 20:40:42;;;;;;;1999.90;999.90;;;-1.50;99.90;;;;;;5032862;28;20445;-48
2020/12/02 20:43:09;;;;;;;1999.90;999.90;;;-1.60;99.90;;;;;;5032945;28;20507;-48
2020/12/02 20:45:35;;;;;;;1999.90;999.90;;;-1.60;99.90;;;;;;5034022;28;20890;-48
2020/12/02 20:48:19;;;;;;;1999.90;999.90;;;-1.60;99.90;;;;;;5031753;28;20504;-48
2020/12/02 20:50:54;;;;;;;1999.90;999.90;;;-1.60;99.90;;;;;;5033226;28;20417;-48
2020/12/02 20:53:39;;;;;;;1999.90;999.90;;;-1.60;99.90;;;;;;5031878;28;20540;-48
2020/12/02 20:56:22;;;;;;;1999.90;999.90;;;-1.70;99.90;;;;;;5045945;28;21225;-48
2020/12/02 20:58:53;;;;;;;1999.90;999.90;;;-1.70;99.90;;;;;;5013335;28;20821;-48
2020/12/02 21:01:20;;;;;;;1999.90;999.90;;;-1.80;99.90;;;;;;5040823;28;20440;-48
2020/12/02 21:03:52;;;;;;;1999.90;999.90;;;-1.80;99.90;;;;;;5034688;28;20512;-49
2020/12/02 21:06:19;;;;;;;1999.90;999.90;;;-1.80;99.90;;;;;;5033034;28;20421;-49
2020/12/02 21:08:46;;;;;;;1999.90;999.90;;;-1.80;99.90;;;;;;5032777;28;20461;-48
2020/12/02 21:11:13;;;;;;;1999.90;999.90;;;-1.80;99.90;;;;;;5032739;28;20421;-48
2020/12/02 21:13:39;;;;;;;1999.90;999.90;;;-1.80;99.90;;;;;;5032738;28;20528;-48
2020/12/02 21:16:18;;;;;;;1999.90;999.90;;;-1.80;99.90;;;;;;5033038;28;20516;-48
2020/12/02 21:19:06;;;;;;;1999.90;999.90;;;-1.80;99.90;;;;;;5040468;28;20198;-48
2020/12/02 21:21:51;;;;;;;1999.90;999.90;;;-1.80;99.90;;;;;;5032087;28;20489;-47
2020/12/02 21:24:44;;;;;;;1999.90;999.90;;;-1.80;99.90;;;;;;5032377;28;20527;-48
2020/12/02 21:27:18;;;;;;;1999.90;999.90;;;-1.80;99.90;;;;;;5032546;28;20467;-48
2020/12/02 21:29:55;;;;;;;1999.90;999.90;;;-1.70;99.90;;;;;;5033598;28;20467;-48
2020/12/02 21:32:44;;;;;;;1999.90;999.90;;;-1.70;99.90;;;;;;5043246;28;20922;-48
2020/12/02 21:35:35;;;;;;;1999.90;999.90;;;-1.70;99.90;;;;;;5032875;28;20501;-48
2020/12/02 21:38:40;;;;;;;1999.90;999.90;;;-1.80;99.90;;;;;;5013913;28;20481;-48
2020/12/02 21:41:14;;;;;;;1999.90;999.90;;;-1.80;99.90;;;;;;5030627;28;20425;-48
2020/12/02 21:43:43;;;;;;;1999.90;999.90;;;-1.80;99.90;;;;;;5032175;28;20425;-48
2020/12/02 21:46:43;;;;;;;1999.90;999.90;;;-1.80;99.90;;;;;;5031942;28;20417;-48
2020/12/02 21:49:35;;;;;;;1999.90;999.90;;;-1.80;99.90;;;;;;5031638;28;20484;-48
2020/12/02 21:52:14;;;;;;;1999.90;999.90;;;-1.80;99.90;;;;;;5028987;28;20413;-48
2020/12/02 21:54:51;;;;;;;1999.90;999.90;;;-1.80;99.90;;;;;;5033398;28;20855;-48
2020/12/02 21:57:20;;;;;;;1999.90;999.90;;;-1.70;99.90;;;;;;5032108;28;21026;-48
2020/12/02 21:59:46;;;;;;;1999.90;999.90;;;-1.70;99.90;;;;;;5029407;28;20453;-48
2020/12/02 22:02:55;;;;;;;1999.90;999.90;;;-1.70;99.90;;;;;;5028471;28;20452;-48
2020/12/02 22:05:56;;;;;;;1999.90;999.90;;;-1.70;99.90;;;;;;5041345;28;20444;-48
2020/12/02 22:08:31;;;;;;;1999.90;999.90;;;-1.60;99.90;;;;;;5023375;28;20473;-48
2020/12/02 22:10:58;;;;;;;1999.90;999.90;;;-1.50;99.90;;;;;;5029891;28;20441;-48
2020/12/02 22:13:44;;;;;;;1999.90;999.90;;;-1.50;99.90;;;;;;5027741;28;20441;-47
2020/12/02 22:16:16;;;;;;;1999.90;999.90;;;-1.50;99.90;;;;;;5026427;28;20544;-48
2020/12/02 22:19:12;;;;;;;1999.90;999.90;;;-1.50;99.90;;;;;;5028333;28;20484;-47
2020/12/02 22:22:15;;;;;;;1999.90;999.90;;;-1.60;99.90;;;;;;5024148;28;20536;-48
2020/12/02 22:24:59;;;;;;;1999.90;999.90;;;-1.60;99.90;;;;;;5022846;28;20968;-48
2020/12/02 22:27:27;;;;;;;1999.90;999.90;;;-1.60;99.90;;;;;;5026992;28;20467;-48
2020/12/02 22:29:54;;;;;;;1999.90;999.90;;;-1.50;99.90;;;;;;5028778;28;20469;-48
2020/12/02 22:32:49;;;;;;;1999.90;999.90;;;-1.60;99.90;;;;;;5030222;28;20780;-48
2020/12/02 22:36:06;;;;;;;1999.90;999.90;;;-1.60;99.90;;;;;;5030398;28;20477;-48
2020/12/02 22:38:50;;;;;;;1999.90;999.90;;;-1.60;99.90;;;;;;5021662;28;20473;-48
2020/12/02 22:41:53;;;;;;;1999.90;999.90;;;-1.60;99.90;;;;;;5018160;28;20733;-48
2020/12/02 22:44:38;;;;;;;1999.90;999.90;;;-1.60;99.90;;;;;;5032248;28;20445;-48
2020/12/02 22:47:09;;;;;;;1999.90;999.90;;;-1.50;99.90;;;;;;5030266;28;20524;-48
2020/12/02 22:49:41;;;;;;;1999.90;999.90;;;-1.40;99.90;;;;;;5029148;28;20535;-48
2020/12/02 22:52:10;;;;;;;1999.90;999.90;;;-1.40;99.90;;;;;;5031197;28;20825;-48
2020/12/02 22:54:39;;;;;;;1999.90;999.90;;;-1.40;99.90;;;;;;5022672;28;20476;-48
2020/12/02 22:57:06;;;;;;;1999.90;999.90;;;-1.40;99.90;;;;;;5030145;28;20424;-48
2020/12/02 22:59:33;;;;;;;1999.90;999.90;;;-1.40;99.90;;;;;;5028307;28;20425;-48
2020/12/02 23:02:05;;;;;;;1999.90;999.90;;;-1.30;99.90;;;;;;5042483;28;20872;-48
2020/12/02 23:04:32;;;;;;;1999.90;999.90;;;-1.30;99.90;;;;;;5026706;28;20437;-48
